Time;durP1;ratioP1;P1;durP2;ratioP2;P2;SDS_P1;SDS_P2;PMS_P1;PMS_P2;Temp;Humidity;BMP_temperature;BMP_pressure;BME280_temperature;BME280_humidity;BME280_pressure;Samples;Min_cycle;Max_cycle;Signal;HPM_P1;HPM_P2
2024/04/20 00:00:08;;;;;;;6.47;1.70;;;8.10;99.90;;;;;;5454311;26;20284;-62
2024/04/20 00:02:36;;;;;;;3.23;1.23;;;8.10;99.90;;;;;;5469269;26;20285;-63
2024/04/20 00:05:05;;;;;;;5.53;1.77;;;8.10;99.90;;;;;;5454472;26;20256;-61
2024/04/20 00:07:33;;;;;;;4.67;1.20;;;8.10;99.90;;;;;;5468660;26;20929;-63
2024/04/20 00:10:02;;;;;;;3.37;1.20;;;8.20;99.90;;;;;;5474715;26;20344;-62
2024/04/20 00:12:33;;;;;;;4.23;1.40;;;8.20;99.90;;;;;;5474640;26;20264;-62
2024/04/20 00:15:01;;;;;;;4.17;1.07;;;8.30;99.90;;;;;;5469215;26;20237;-62
2024/04/20 00:17:29;;;;;;;3.60;1.10;;;8.20;99.90;;;;;;5468591;26;20261;-61
2024/04/20 00:19:58;;;;;;;3.83;1.33;;;8.10;99.90;;;;;;5473140;26;20281;-62
2024/04/20 00:22:26;;;;;;;5.50;1.50;;;8.10;99.90;;;;;;5474602;26;20232;-62
2024/04/20 00:24:55;;;;;;;3.00;1.30;;;8.20;99.90;;;;;;5471023;26;20233;-62
2024/04/20 00:27:23;;;;;;;3.73;1.37;;;8.30;99.90;;;;;;5468527;26;20230;-61
2024/04/20 00:29:55;;;;;;;5.43;1.23;;;8.40;99.90;;;;;;5471100;26;20242;-61
2024/04/20 00:32:24;;;;;;;3.90;1.30;;;8.40;99.90;;;;;;5474151;26;20263;-61
2024/04/20 00:34:52;;;;;;;2.63;1.40;;;8.50;99.90;;;;;;5471312;26;20271;-62
2024/04/20 00:37:20;;;;;;;2.33;1.37;;;8.60;99.90;;;;;;5468363;26;20241;-61
2024/04/20 00:39:49;;;;;;;1.80;1.20;;;8.60;99.90;;;;;;5470336;26;20234;-61
2024/04/20 00:42:17;;;;;;;3.33;1.50;;;8.60;99.90;;;;;;5474361;26;20233;-61
2024/04/20 00:44:45;;;;;;;5.03;2.00;;;8.70;99.90;;;;;;5472851;26;20271;-60
2024/04/20 00:47:16;;;;;;;3.90;1.77;;;8.70;99.90;;;;;;5468160;26;20234;-59
2024/04/20 00:49:45;;;;;;;6.70;2.30;;;8.70;99.90;;;;;;5469341;26;20233;-61
2024/04/20 00:52:13;;;;;;;4.00;2.10;;;8.70;99.90;;;;;;5474154;26;20229;-62
2024/04/20 00:54:43;;;;;;;4.07;1.80;;;8.60;99.90;;;;;;5473196;26;20228;-61
2024/04/20 00:57:12;;;;;;;5.70;1.90;;;8.70;99.90;;;;;;5468199;26;20230;-62
2024/04/20 00:59:40;;;;;;;5.77;1.63;;;8.70;99.90;;;;;;5467826;26;20391;-61
2024/04/20 01:02:08;;;;;;;4.73;1.47;;;8.70;99.90;;;;;;5453579;26;20703;-61
2024/04/20 01:04:39;;;;;;;3.93;1.57;;;8.50;99.90;;;;;;5468054;26;20355;-62
2024/04/20 01:07:08;;;;;;;3.03;1.30;;;8.50;99.90;;;;;;5453578;26;20742;-61
2024/04/20 01:09:36;;;;;;;5.90;1.70;;;8.40;99.90;;;;;;5468002;26;20233;-61
2024/04/20 01:12:05;;;;;;;4.20;1.40;;;8.50;99.90;;;;;;5473435;26;20259;-61
2024/04/20 01:14:33;;;;;;;12.20;7.40;;;8.50;99.90;;;;;;5474109;26;20233;-62
2024/04/20 01:17:02;;;;;;;5.70;3.33;;;8.40;99.90;;;;;;5468905;26;20237;-62
2024/04/20 01:19:31;;;;;;;4.13;1.63;;;8.40;99.90;;;;;;5467673;26;20647;-62
2024/04/20 01:22:02;;;;;;;3.23;1.40;;;8.40;99.90;;;;;;5472076;26;20286;-62
2024/04/20 01:24:31;;;;;;;5.43;1.57;;;8.30;99.90;;;;;;5473900;26;20233;-60
2024/04/20 01:27:02;;;;;;;4.40;1.43;;;8.30;99.90;;;;;;5469112;26;20229;-61
2024/04/20 01:29:31;;;;;;;3.23;1.20;;;8.30;99.90;;;;;;5467593;26;20715;-61
2024/04/20 01:31:59;;;;;;;5.93;1.37;;;8.10;99.90;;;;;;5471668;26;20761;-62
2024/04/20 01:34:28;;;;;;;3.33;1.20;;;8.00;99.90;;;;;;5473965;26;20726;-60
2024/04/20 01:36:56;;;;;;;4.37;1.30;;;8.00;99.90;;;;;;5469884;26;20229;-60
2024/04/20 01:39:25;;;;;;;4.67;1.50;;;8.10;99.90;;;;;;5467511;26;20287;-60
2024/04/20 01:41:53;;;;;;;5.23;1.50;;;8.20;99.90;;;;;;5469736;26;20268;-60
2024/04/20 01:44:24;;;;;;;5.90;1.93;;;8.20;99.90;;;;;;5473974;26;20737;-61
2024/04/20 01:46:52;;;;;;;5.47;1.60;;;8.30;99.90;;;;;;5471213;26;20239;-61
2024/04/20 01:49:21;;;;;;;3.50;1.37;;;8.30;99.90;;;;;;5467629;26;20238;-60
2024/04/20 01:51:49;;;;;;;3.50;1.60;;;8.30;99.90;;;;;;5468612;26;20273;-60
2024/04/20 01:54:17;;;;;;;5.23;1.50;;;8.40;99.90;;;;;;5473678;26;20263;-61
2024/04/20 01:56:46;;;;;;;3.43;1.27;;;8.40;99.90;;;;;;5472492;26;20641;-61
2024/04/20 01:59:11;;;;;;;5.13;1.70;;;8.40;99.90;;;;;;5467148;26;20234;-61
2024/04/20 02:01:46;;;;;;;3.50;1.07;;;8.40;99.90;;;;;;5466936;26;20230;-61
2024/04/20 02:04:14;;;;;;;5.37;1.47;;;8.40;99.90;;;;;;5453879;26;20766;-61
2024/04/20 02:06:42;;;;;;;6.63;1.80;;;8.40;99.90;;;;;;5465791;26;20563;-61
2024/04/20 02:09:11;;;;;;;5.60;1.40;;;8.50;99.90;;;;;;5452849;26;20234;-61
2024/04/20 02:11:39;;;;;;;3.73;1.50;;;8.40;99.90;;;;;;5466662;26;20732;-61
2024/04/20 02:14:08;;;;;;;3.63;1.10;;;8.30;99.90;;;;;;5473039;26;20236;-62
2024/04/20 02:16:36;;;;;;;4.57;1.40;;;8.30;99.90;;;;;;5473180;26;20805;-62
2024/04/20 02:19:07;;;;;;;2.80;1.23;;;8.30;99.90;;;;;;5467661;26;20272;-60
2024/04/20 02:21:35;;;;;;;7.23;1.73;;;8.40;99.90;;;;;;5466646;26;20276;-60
2024/04/20 02:24:03;;;;;;;5.47;1.50;;;8.30;99.90;;;;;;5471816;26;20268;-61
2024/04/20 02:26:34;;;;;;;5.27;1.70;;;8.30;99.90;;;;;;5472989;26;20305;-61
2024/04/20 02:29:03;;;;;;;2.47;1.20;;;8.30;99.90;;;;;;5468043;26;20232;-62
2024/04/20 02:31:32;;;;;;;6.87;1.73;;;8.30;99.90;;;;;;5466618;26;20229;-60
2024/04/20 02:34:01;;;;;;;5.10;1.63;;;8.20;99.90;;;;;;5470864;26;20226;-60
2024/04/20 02:36:33;;;;;;;6.87;1.73;;;8.10;99.90;;;;;;5473285;26;20279;-61
2024/04/20 02:39:02;;;;;;;3.00;1.37;;;8.20;99.90;;;;;;5468404;26;20302;-61
2024/04/20 02:41:30;;;;;;;7.47;1.90;;;8.20;99.90;;;;;;5466507;26;20229;-62
2024/04/20 02:43:59;;;;;;;4.23;1.30;;;8.20;99.90;;;;;;5470310;26;20230;-62
2024/04/20 02:46:27;;;;;;;3.73;1.60;;;8.20;99.90;;;;;;5472898;26;20328;-61
2024/04/20 02:48:56;;;;;;;4.50;1.57;;;8.30;99.90;;;;;;5469781;26;20229;-62
2024/04/20 02:51:24;;;;;;;5.80;1.27;;;8.30;99.90;;;;;;5466233;26;20265;-59
2024/04/20 02:53:55;;;;;;;5.20;1.67;;;8.30;99.90;;;;;;5468663;26;20715;-62
2024/04/20 02:56:23;;;;;;;5.10;1.60;;;8.20;99.90;;;;;;5472435;26;20275;-61
2024/04/20 02:58:51;;;;;;;3.10;1.37;;;8.10;99.90;;;;;;5470464;26;20270;-59
2024/04/20 03:01:20;;;;;;;3.27;1.23;;;8.00;99.90;;;;;;5459975;26;20723;-62
2024/04/20 03:03:48;;;;;;;9.37;1.90;;;7.90;99.90;;;;;;5471449;26;20333;-61
2024/04/20 03:06:17;;;;;;;3.87;1.83;;;7.80;99.90;;;;;;5466083;26;20226;-60
2024/04/20 03:08:45;;;;;;;5.80;1.60;;;7.90;99.90;;;;;;5465888;26;20229;-60
2024/04/20 03:11:16;;;;;;;4.63;1.40;;;7.90;99.90;;;;;;5472003;26;20259;-62
2024/04/20 03:13:44;;;;;;;5.10;1.63;;;7.90;99.90;;;;;;5472319;26;20757;-62
2024/04/20 03:16:13;;;;;;;6.53;1.67;;;7.90;99.90;;;;;;5466000;26;20602;-62
2024/04/20 03:18:41;;;;;;;5.63;1.53;;;7.90;99.90;;;;;;5468010;26;20454;-62
2024/04/20 03:21:09;;;;;;;4.87;1.90;;;8.00;99.90;;;;;;5454264;26;20230;-62
2024/04/20 03:23:38;;;;;;;5.87;1.83;;;7.90;99.90;;;;;;5469457;26;20585;-61
2024/04/20 03:26:06;;;;;;;7.07;1.53;;;7.90;99.90;;;;;;5474607;26;20690;-62
2024/04/20 03:28:35;;;;;;;4.13;1.50;;;7.90;99.90;;;;;;5475652;26;20573;-60
2024/04/20 03:31:03;;;;;;;5.87;1.60;;;8.00;99.90;;;;;;5470621;26;20236;-60
2024/04/20 03:33:35;;;;;;;3.57;1.50;;;8.00;99.90;;;;;;5469308;26;20280;-61
2024/04/20 03:36:04;;;;;;;3.33;1.10;;;8.00;99.90;;;;;;5473692;26;20714;-61
2024/04/20 03:38:32;;;;;;;4.63;1.60;;;8.10;99.90;;;;;;5475694;26;20232;-61
2024/04/20 03:41:01;;;;;;;5.23;1.90;;;8.10;99.90;;;;;;5471098;26;20229;-61
2024/04/20 03:43:29;;;;;;;6.07;1.80;;;8.10;99.90;;;;;;5469158;26;20234;-61
2024/04/20 03:46:00;;;;;;;8.33;1.77;;;8.10;99.90;;;;;;5472060;26;20230;-60
2024/04/20 03:48:29;;;;;;;6.33;2.07;;;8.10;99.90;;;;;;5475362;26;20229;-61
2024/04/20 03:50:59;;;;;;;6.73;1.77;;;8.10;99.90;;;;;;5472000;26;20718;-60
2024/04/20 03:53:27;;;;;;;6.00;2.00;;;8.10;99.90;;;;;;5469097;26;20233;-59
2024/04/20 03:55:56;;;;;;;5.60;1.80;;;8.00;99.90;;;;;;5471286;26;20581;-61
2024/04/20 03:58:24;;;;;;;5.57;1.60;;;8.00;99.90;;;;;;5475263;26;20229;-62
2024/04/20 04:00:53;;;;;;;7.90;2.40;;;8.00;99.90;;;;;;5472778;26;20280;-61
2024/04/20 04:03:26;;;;;;;6.67;2.10;;;8.00;99.90;;;;;;5468926;26;20288;-60
2024/04/20 04:05:55;;;;;;;6.73;2.07;;;8.10;99.90;;;;;;5470930;26;20351;-62
2024/04/20 04:08:23;;;;;;;10.50;2.10;;;8.00;99.90;;;;;;5474894;26;20271;-59
2024/04/20 04:10:52;;;;;;;5.00;1.60;;;7.90;99.90;;;;;;5473118;26;20279;-61
2024/04/20 04:13:20;;;;;;;7.97;1.60;;;8.00;99.90;;;;;;5469359;26;20229;-61
2024/04/20 04:15:49;;;;;;;4.87;1.80;;;8.10;99.90;;;;;;5469290;26;20325;-61
2024/04/20 04:18:18;;;;;;;8.10;1.77;;;8.20;99.90;;;;;;5474949;26;20263;-60
2024/04/20 04:20:49;;;;;;;6.90;1.80;;;8.20;99.90;;;;;;5474466;26;20237;-60
2024/04/20 04:23:17;;;;;;;7.97;2.10;;;8.20;99.90;;;;;;5455157;26;20230;-60
2024/04/20 04:25:45;;;;;;;8.10;1.83;;;8.20;99.90;;;;;;5468538;26;20357;-60
2024/04/20 04:28:14;;;;;;;4.83;2.03;;;8.20;99.90;;;;;;5454130;26;20260;-61
2024/04/20 04:30:42;;;;;;;8.70;2.10;;;8.10;99.90;;;;;;5467148;26;20233;-61
2024/04/20 04:33:10;;;;;;;7.13;2.33;;;8.10;99.90;;;;;;5474135;26;20228;-61
2024/04/20 04:35:38;;;;;;;6.10;1.57;;;8.00;99.90;;;;;;5474700;26;20263;-60
2024/04/20 04:38:09;;;;;;;5.77;2.00;;;8.00;99.90;;;;;;5469610;26;20276;-59
2024/04/20 04:40:38;;;;;;;6.20;1.97;;;8.10;99.90;;;;;;5468318;26;20582;-61
2024/04/20 04:43:06;;;;;;;6.27;1.90;;;8.10;99.90;;;;;;5473248;26;20310;-61
2024/04/20 04:45:34;;;;;;;3.27;1.53;;;8.00;99.90;;;;;;5474648;26;20265;-62
2024/04/20 04:48:03;;;;;;;8.20;1.57;;;7.90;99.90;;;;;;5470525;26;20229;-61
2024/04/20 04:50:30;;;;;;;6.93;1.83;;;8.00;99.90;;;;;;5467827;26;20735;-62
2024/04/20 04:52:59;;;;;;;6.23;1.90;;;8.00;99.90;;;;;;5470718;26;20234;-61
2024/04/20 04:55:32;;;;;;;3.93;1.70;;;7.90;99.90;;;;;;5474195;26;20726;-62
2024/04/20 04:58:01;;;;;;;7.60;2.60;;;8.00;99.90;;;;;;5471041;26;20281;-61
2024/04/20 05:00:29;;;;;;;4.70;1.80;;;8.00;99.90;;;;;;5491971;21;20346;-59
2024/04/20 05:02:57;;;;;;;4.23;1.57;;;8.00;99.90;;;;;;5469936;26;20272;-60
2024/04/20 05:05:26;;;;;;;4.17;1.57;;;8.10;99.90;;;;;;5474236;26;20638;-60
2024/04/20 05:07:54;;;;;;;6.30;1.77;;;8.10;99.90;;;;;;5473095;26;20241;-60
2024/04/20 05:10:23;;;;;;;4.97;1.97;;;8.10;99.90;;;;;;5452430;26;20280;-59
2024/04/20 05:12:54;;;;;;;6.13;2.03;;;8.20;99.90;;;;;;5452946;26;20230;-61
2024/04/20 05:15:22;;;;;;;6.27;1.60;;;8.20;99.90;;;;;;5453008;26;20265;-59
2024/04/20 05:17:53;;;;;;;5.33;2.20;;;8.20;99.90;;;;;;5452800;26;20227;-60
2024/04/20 05:20:21;;;;;;;4.30;1.60;;;8.30;99.90;;;;;;5452377;26;20587;-60
2024/04/20 05:22:49;;;;;;;4.43;2.00;;;8.40;99.90;;;;;;5452512;26;20230;-60
2024/04/20 05:25:18;;;;;;;4.50;1.67;;;8.50;99.90;;;;;;5452691;26;20327;-60
2024/04/20 05:27:46;;;;;;;5.53;1.60;;;8.60;99.90;;;;;;5452938;26;20230;-60
2024/04/20 05:30:17;;;;;;;3.60;1.50;;;8.60;99.90;;;;;;5452052;26;20631;-60
2024/04/20 05:32:46;;;;;;;5.43;1.40;;;8.50;99.90;;;;;;5452804;26;20234;-60
2024/04/20 05:35:14;;;;;;;3.13;1.60;;;8.50;99.90;;;;;;5452224;26;20634;-59
2024/04/20 05:37:42;;;;;;;3.07;1.43;;;8.50;99.90;;;;;;5452460;26;20230;-60
2024/04/20 05:40:11;;;;;;;3.17;1.90;;;8.60;99.90;;;;;;5451898;26;20296;-59
2024/04/20 05:42:39;;;;;;;1.97;1.23;;;8.70;99.90;;;;;;5452333;26;20230;-59
2024/04/20 05:45:08;;;;;;;4.27;2.10;;;8.60;99.90;;;;;;5451874;26;20230;-59
2024/04/20 05:47:39;;;;;;;4.10;2.77;;;8.40;99.90;;;;;;5452210;26;20230;-59
2024/04/20 05:50:08;;;;;;;4.97;1.03;;;8.20;99.90;;;;;;5452292;26;20284;-58
2024/04/20 05:52:37;;;;;;;3.77;1.27;;;8.00;99.90;;;;;;5451917;26;20574;-59
2024/04/20 05:55:06;;;;;;;2.40;1.10;;;8.00;99.90;;;;;;5451786;26;20334;-59
2024/04/20 05:57:34;;;;;;;2.23;1.43;;;7.90;99.90;;;;;;5452204;26;20226;-58
2024/04/20 06:00:03;;;;;;;3.23;1.20;;;7.80;99.90;;;;;;5451789;26;20230;-59
2024/04/20 06:02:31;;;;;;;3.97;2.37;;;7.70;99.90;;;;;;5451586;26;20594;-60
2024/04/20 06:05:02;;;;;;;3.20;1.20;;;7.70;99.90;;;;;;5452168;26;20719;-59
2024/04/20 06:07:32;;;;;;;4.43;1.70;;;7.70;99.90;;;;;;5452027;26;20238;-60
2024/04/20 06:10:00;;;;;;;2.30;1.30;;;7.90;99.90;;;;;;5451663;26;20281;-60
2024/04/20 06:12:28;;;;;;;4.00;1.70;;;8.10;99.90;;;;;;5451603;26;20230;-59
2024/04/20 06:14:57;;;;;;;3.17;1.60;;;8.30;99.90;;;;;;5451898;26;20361;-60
2024/04/20 06:17:26;;;;;;;2.73;1.20;;;8.40;99.90;;;;;;5451808;26;20230;-60
2024/04/20 06:19:54;;;;;;;2.93;1.50;;;8.40;99.90;;;;;;5452089;26;20276;-57
2024/04/20 06:22:25;;;;;;;3.60;1.30;;;8.40;99.90;;;;;;5451256;26;20230;-59
2024/04/20 06:24:54;;;;;;;2.77;1.40;;;8.70;99.90;;;;;;5451556;26;20260;-60
2024/04/20 06:27:22;;;;;;;2.97;1.77;;;8.80;99.90;;;;;;5451474;26;20246;-60
2024/04/20 06:29:50;;;;;;;4.47;1.60;;;8.70;99.90;;;;;;5450690;26;20277;-59
2024/04/20 06:32:19;;;;;;;2.93;1.67;;;8.60;99.90;;;;;;5422197;26;20711;-60
2024/04/20 06:34:47;;;;;;;4.87;2.00;;;8.60;99.90;;;;;;5451606;26;20711;-60
2024/04/20 06:37:17;;;;;;;4.13;1.77;;;8.80;99.90;;;;;;5451346;26;20234;-60
2024/04/20 06:39:49;;;;;;;6.27;2.40;;;8.90;99.90;;;;;;5451274;26;20234;-60
2024/04/20 06:42:17;;;;;;;4.67;2.27;;;9.00;99.90;;;;;;5450783;26;20238;-59
2024/04/20 06:44:50;;;;;;;2.77;1.70;;;9.40;99.90;;;;;;5451332;26;20570;-60
2024/04/20 06:47:18;;;;;;;2.90;1.50;;;9.40;99.90;;;;;;5451054;26;20238;-59
2024/04/20 06:49:47;;;;;;;3.03;1.33;;;10.00;99.90;;;;;;5451043;26;20333;-60
2024/04/20 06:52:15;;;;;;;3.03;1.50;;;10.60;99.90;;;;;;5450010;26;20233;-60
2024/04/20 06:54:44;;;;;;;4.23;1.60;;;10.60;99.90;;;;;;5451469;26;20225;-60
2024/04/20 06:57:15;;;;;;;2.90;2.00;;;10.30;99.90;;;;;;5450971;26;20260;-60
2024/04/20 06:59:43;;;;;;;4.63;2.07;;;10.10;99.90;;;;;;5450704;26;20788;-59
2024/04/20 07:02:12;;;;;;;3.13;1.70;;;9.90;99.90;;;;;;5450627;26;20234;-59
2024/04/20 07:04:40;;;;;;;3.00;1.40;;;9.90;99.90;;;;;;5451427;26;20714;-60
2024/04/20 07:07:09;;;;;;;2.60;1.47;;;10.00;99.90;;;;;;5450780;26;20229;-58
2024/04/20 07:09:37;;;;;;;3.53;1.60;;;9.90;99.90;;;;;;5450875;26;20276;-60
2024/04/20 07:12:06;;;;;;;4.03;1.60;;;9.90;99.90;;;;;;5450554;26;20567;-59
2024/04/20 07:14:38;;;;;;;2.80;1.50;;;9.70;99.90;;;;;;5450749;26;20338;-60
2024/04/20 07:17:06;;;;;;;3.50;1.70;;;9.70;99.90;;;;;;5450522;26;20230;-60
2024/04/20 07:19:35;;;;;;;4.97;1.70;;;9.80;99.90;;;;;;5439213;26;20297;-66
2024/04/20 07:22:03;;;;;;;4.80;1.40;;;10.00;99.90;;;;;;5450130;26;20229;-60
2024/04/20 07:24:31;;;;;;;3.40;1.60;;;9.80;99.90;;;;;;5446245;26;20351;-62
2024/04/20 07:27:00;;;;;;;3.30;1.70;;;9.80;99.90;;;;;;5445652;26;20580;-61
2024/04/20 07:29:29;;;;;;;3.97;1.73;;;9.70;99.90;;;;;;5449424;26;20757;-65
2024/04/20 07:32:19;;;;;;;2.40;1.40;;;9.80;99.90;;;;;;5449675;26;20276;-61
2024/04/20 07:34:47;;;;;;;2.73;1.60;;;9.70;99.90;;;;;;5450363;26;20233;-61
2024/04/20 07:37:16;;;;;;;2.27;1.50;;;9.70;99.90;;;;;;5450061;26;20230;-60
2024/04/20 07:39:44;;;;;;;2.20;1.13;;;9.90;99.90;;;;;;5450158;26;20233;-62
2024/04/20 07:42:12;;;;;;;5.37;2.10;;;10.40;99.90;;;;;;5449515;26;20229;-62
2024/04/20 07:44:41;;;;;;;3.57;1.40;;;10.70;99.90;;;;;;5450451;26;20230;-63
2024/04/20 07:47:12;;;;;;;3.47;1.80;;;11.00;99.90;;;;;;5450035;26;20266;-62
2024/04/20 07:49:41;;;;;;;3.70;1.60;;;11.00;99.90;;;;;;5449996;26;20238;-61
2024/04/20 07:52:09;;;;;;;6.30;1.93;;;11.00;99.90;;;;;;5449453;26;20283;-64
2024/04/20 07:54:37;;;;;;;2.77;1.53;;;11.00;99.90;;;;;;5449705;26;20265;-63
2024/04/20 07:57:06;;;;;;;2.23;1.23;;;11.10;99.90;;;;;;5449806;26;20226;-64
2024/04/20 07:59:35;;;;;;;2.40;1.23;;;11.30;99.90;;;;;;5449760;26;20245;-63
2024/04/20 08:02:04;;;;;;;4.03;1.57;;;12.00;99.90;;;;;;5449343;26;20265;-61
2024/04/20 08:04:35;;;;;;;3.90;1.20;;;13.20;99.90;;;;;;5449734;26;20230;-60
2024/04/20 08:07:03;;;;;;;2.80;1.10;;;13.00;99.90;;;;;;5452786;26;20299;-62
2024/04/20 08:09:31;;;;;;;4.57;1.73;;;12.90;99.90;;;;;;5453344;26;20233;-62
2024/04/20 08:11:59;;;;;;;5.07;1.50;;;13.10;99.90;;;;;;5453165;26;20287;-67
2024/04/20 08:14:28;;;;;;;2.80;1.40;;;13.30;99.90;;;;;;5453276;26;20233;-62
2024/04/20 08:16:56;;;;;;;3.57;1.47;;;13.90;99.90;;;;;;5453201;26;20231;-61
2024/04/20 08:19:24;;;;;;;3.80;1.40;;;14.40;99.90;;;;;;5452803;26;20237;-61
2024/04/20 08:21:55;;;;;;;1.60;1.37;;;14.60;99.90;;;;;;5453061;26;20280;-61
2024/04/20 08:24:24;;;;;;;3.87;1.57;;;14.70;99.90;;;;;;5425421;26;20241;-62
2024/04/20 08:26:55;;;;;;;2.87;1.27;;;15.10;99.90;;;;;;5453230;26;20230;-65
2024/04/20 08:29:23;;;;;;;3.60;1.10;;;15.00;99.90;;;;;;5419924;26;20242;-64
2024/04/20 08:31:52;;;;;;;1.63;0.90;;;14.70;99.90;;;;;;5392257;26;20753;-62
2024/04/20 08:34:20;;;;;;;3.67;1.60;;;14.20;99.90;;;;;;5412163;26;20238;-66
2024/04/20 08:36:48;;;;;;;5.00;1.50;;;13.90;99.90;;;;;;5416676;26;20227;-64
2024/04/20 08:39:19;;;;;;;3.07;1.40;;;13.50;99.90;;;;;;5416828;26;20246;-61
2024/04/20 08:41:57;;;;;;;2.67;1.20;;;13.10;99.90;;;;;;5416466;26;20231;-62
2024/04/20 08:44:30;;;;;;;4.87;1.60;;;13.20;99.90;;;;;;5403145;26;20234;-61
2024/04/20 08:46:58;;;;;;;3.43;1.40;;;12.70;99.90;;;;;;5412592;26;20230;-65
2024/04/20 08:49:28;;;;;;;1.33;1.00;;;12.20;99.90;;;;;;5415659;26;20235;-61
2024/04/20 08:51:57;;;;;;;3.20;1.30;;;11.60;99.90;;;;;;5412236;26;20545;-62
2024/04/20 08:54:30;;;;;;;7.27;1.60;;;11.10;99.90;;;;;;5416620;26;20235;-63
2024/04/20 08:57:01;;;;;;;2.03;1.30;;;10.90;99.90;;;;;;5412250;26;20231;-62
2024/04/20 08:59:29;;;;;;;2.60;1.40;;;10.60;99.90;;;;;;5425252;26;20562;-65
2024/04/20 09:01:58;;;;;;;2.70;1.40;;;10.30;99.90;;;;;;5452852;26;20272;-64
2024/04/20 09:04:27;;;;;;;2.83;1.30;;;10.20;99.90;;;;;;5442306;26;20572;-63
2024/04/20 09:06:56;;;;;;;4.63;1.40;;;10.10;99.90;;;;;;5452320;26;20234;-63
2024/04/20 09:09:25;;;;;;;2.90;1.40;;;10.10;99.90;;;;;;5424118;26;20238;-64
2024/04/20 09:11:56;;;;;;;3.33;1.60;;;10.20;99.90;;;;;;5452302;26;20230;-63
2024/04/20 09:14:25;;;;;;;3.67;1.50;;;10.20;99.90;;;;;;5424205;26;20229;-63
2024/04/20 09:16:53;;;;;;;4.50;1.47;;;10.60;99.90;;;;;;5436396;26;20339;-66
2024/04/20 09:19:22;;;;;;;2.40;1.23;;;11.30;99.90;;;;;;5417541;26;20294;-64
2024/04/20 09:21:51;;;;;;;5.63;1.97;;;11.80;99.90;;;;;;5409601;26;20231;-65
2024/04/20 09:24:19;;;;;;;3.17;1.50;;;12.40;99.90;;;;;;5416063;26;20235;-65
2024/04/20 09:26:52;;;;;;;1.80;1.40;;;12.80;99.90;;;;;;5415850;26;20396;-64
2024/04/20 09:29:23;;;;;;;3.63;1.57;;;13.10;99.90;;;;;;5416031;26;20239;-65
2024/04/20 09:31:52;;;;;;;5.17;2.10;;;13.10;99.90;;;;;;5415260;26;20257;-65
2024/04/20 09:34:23;;;;;;;2.60;1.37;;;13.30;99.90;;;;;;5415365;26;20266;-65
2024/04/20 09:36:49;;;;;;;2.83;1.50;;;13.40;99.60;;;;;;5416380;26;20274;-65
2024/04/20 09:39:17;;;;;;;2.47;1.47;;;13.30;99.90;;;;;;5415657;26;20659;-58
2024/04/20 09:41:49;;;;;;;2.50;1.60;;;13.00;99.90;;;;;;5415985;26;20414;-60
2024/04/20 09:44:18;;;;;;;3.10;1.40;;;12.60;99.90;;;;;;5415968;26;20230;-58
2024/04/20 09:46:51;;;;;;;1.90;1.30;;;12.20;99.90;;;;;;5415544;26;20231;-58
2024/04/20 09:49:19;;;;;;;2.87;1.53;;;12.10;99.90;;;;;;5415273;26;20235;-58
2024/04/20 09:51:53;;;;;;;7.63;1.80;;;12.00;99.90;;;;;;5415361;26;20231;-58
2024/04/20 09:54:27;;;;;;;2.90;1.60;;;12.20;99.90;;;;;;5415518;26;20230;-59
2024/04/20 09:56:57;;;;;;;2.23;1.50;;;12.40;99.90;;;;;;5415676;26;20277;-59
2024/04/20 09:59:26;;;;;;;3.13;1.60;;;12.50;99.90;;;;;;5423152;26;20716;-59
2024/04/20 10:01:58;;;;;;;3.37;1.70;;;12.50;99.90;;;;;;5407753;26;20242;-69
2024/04/20 10:04:27;;;;;;;3.33;1.40;;;12.20;99.90;;;;;;5410330;26;20298;-67
2024/04/20 10:06:57;;;;;;;3.10;2.37;;;11.50;99.90;;;;;;5416994;26;20266;-64
2024/04/20 10:09:27;;;;;;;2.53;1.73;;;11.00;99.90;;;;;;5431516;26;20269;-60
2024/04/20 10:11:57;;;;;;;2.47;1.70;;;10.80;99.90;;;;;;5444752;26;20557;-62
2024/04/20 10:14:26;;;;;;;3.83;1.40;;;10.90;99.90;;;;;;5423109;26;20290;-61
2024/04/20 10:17:00;;;;;;;2.07;1.63;;;11.10;99.90;;;;;;5451571;26;20280;-60
2024/04/20 10:19:38;;;;;;;2.73;1.60;;;11.70;99.90;;;;;;5424241;26;20234;-61
2024/04/20 10:22:06;;;;;;;1.90;1.47;;;12.60;99.90;;;;;;5451146;26;20325;-61
2024/04/20 10:24:35;;;;;;;5.00;1.70;;;13.50;99.90;;;;;;5451525;26;20280;-62
2024/04/20 10:27:03;;;;;;;4.10;1.53;;;14.40;99.30;;;;;;5450629;26;20727;-61
2024/04/20 10:29:35;;;;;;;3.90;1.40;;;14.90;97.20;;;;;;5451241;26;20275;-61
2024/04/20 10:32:08;;;;;;;1.20;1.10;;;14.70;94.60;;;;;;5451166;26;20272;-60
2024/04/20 10:34:36;;;;;;;2.27;1.47;;;13.90;94.60;;;;;;5451396;26;20275;-61
2024/04/20 10:37:08;;;;;;;3.03;1.40;;;13.30;96.30;;;;;;5451155;26;20230;-61
2024/04/20 10:39:38;;;;;;;1.77;1.40;;;12.90;96.30;;;;;;5451423;26;20707;-61
2024/04/20 10:42:11;;;;;;;5.83;1.30;;;12.60;97.50;;;;;;5450921;26;20656;-61
2024/04/20 10:44:39;;;;;;;2.37;1.10;;;12.70;98.10;;;;;;5451432;26;20685;-62
2024/04/20 10:47:19;;;;;;;2.23;1.40;;;13.00;97.80;;;;;;5450868;26;20238;-61
2024/04/20 10:49:47;;;;;;;4.20;1.30;;;13.20;97.10;;;;;;5450958;26;20753;-59
2024/04/20 10:52:21;;;;;;;2.93;1.00;;;13.30;96.70;;;;;;5450769;26;20237;-59
2024/04/20 10:54:50;;;;;;;3.17;1.13;;;13.40;95.30;;;;;;5451237;26;20237;-60
2024/04/20 10:57:18;;;;;;;2.43;1.10;;;13.50;95.60;;;;;;5451155;26;20260;-60
2024/04/20 10:59:47;;;;;;;2.73;1.50;;;13.80;95.30;;;;;;5451044;26;20362;-60
2024/04/20 11:02:19;;;;;;;2.50;1.10;;;13.80;95.20;;;;;;5450883;26;20234;-60
2024/04/20 11:04:47;;;;;;;3.30;1.20;;;13.90;96.20;;;;;;5451059;26;20290;-60
2024/04/20 11:07:19;;;;;;;4.00;1.40;;;13.80;95.20;;;;;;5450827;26;20268;-59
2024/04/20 11:09:49;;;;;;;3.30;1.17;;;13.90;95.20;;;;;;5451167;26;20613;-60
2024/04/20 11:12:19;;;;;;;3.17;1.37;;;14.10;94.70;;;;;;5450103;26;20249;-60
2024/04/20 11:14:48;;;;;;;5.07;1.60;;;14.10;94.60;;;;;;5450215;26;20302;-60
2024/04/20 11:17:19;;;;;;;2.93;1.63;;;14.00;94.40;;;;;;5450385;26;20269;-59
2024/04/20 11:19:45;;;;;;;3.30;1.20;;;13.90;94.80;;;;;;5450460;26;20715;-60
2024/04/20 11:22:14;;;;;;;1.23;1.00;;;13.90;95.20;;;;;;5450209;26;20238;-61
2024/04/20 11:24:45;;;;;;;1.80;1.00;;;13.90;94.60;;;;;;5450285;26;20242;-61
2024/04/20 11:27:16;;;;;;;2.63;1.53;;;13.80;94.50;;;;;;5450555;26;20269;-63
2024/04/20 11:29:45;;;;;;;3.73;1.63;;;13.90;93.80;;;;;;5450580;26;20707;-61
2024/04/20 11:32:23;;;;;;;3.83;1.20;;;14.30;94.50;;;;;;5450248;26;20264;-60
2024/04/20 11:34:53;;;;;;;1.73;1.10;;;14.80;93.30;;;;;;5450540;26;20264;-60
2024/04/20 11:37:23;;;;;;;3.73;1.30;;;15.00;94.20;;;;;;5450020;26;20715;-59
2024/04/20 11:40:03;;;;;;;2.27;1.00;;;15.00;94.10;;;;;;5452353;26;20743;-61
2024/04/20 11:42:31;;;;;;;2.47;1.30;;;14.80;93.50;;;;;;5426674;26;20233;-59
2024/04/20 11:45:00;;;;;;;3.83;1.40;;;14.40;94.10;;;;;;5454214;26;20272;-61
2024/04/20 11:47:30;;;;;;;3.47;1.53;;;13.70;95.10;;;;;;5425109;26;20272;-61
2024/04/20 11:49:59;;;;;;;2.27;1.27;;;13.30;96.20;;;;;;5454187;26;20234;-60
2024/04/20 11:55:12;;;;;;;3.23;1.40;;;13.50;96.70;;;;;;5456242;26;20276;-60
2024/04/20 11:57:42;;;;;;;6.27;1.37;;;13.40;96.50;;;;;;5453677;26;20233;-59
2024/04/20 12:00:12;;;;;;;2.60;1.50;;;12.90;96.90;;;;;;5453239;26;20800;-60
2024/04/20 12:02:43;;;;;;;2.80;1.67;;;12.80;97.70;;;;;;5453794;26;20268;-60
2024/04/20 12:05:11;;;;;;;4.00;1.70;;;12.60;97.20;;;;;;5453661;26;20230;-59
2024/04/20 12:07:40;;;;;;;3.83;1.30;;;12.20;97.40;;;;;;5453786;26;20230;-60
2024/04/20 12:10:10;;;;;;;3.37;1.70;;;12.20;97.50;;;;;;5452973;26;20827;-60
2024/04/20 12:12:39;;;;;;;2.03;1.43;;;12.50;97.90;;;;;;5453300;26;20226;-60
2024/04/20 12:15:08;;;;;;;3.83;1.80;;;13.00;97.10;;;;;;5453177;26;20234;-60
2024/04/20 12:17:37;;;;;;;2.13;1.30;;;13.40;96.10;;;;;;5453254;26;20268;-58
2024/04/20 12:20:11;;;;;;;2.73;1.50;;;13.50;96.90;;;;;;5452801;26;20630;-59
2024/04/20 12:22:40;;;;;;;2.53;1.33;;;13.60;95.70;;;;;;5453117;26;20264;-59
2024/04/20 12:25:08;;;;;;;4.10;1.50;;;13.60;95.70;;;;;;5452644;26;20275;-59
2024/04/20 12:27:37;;;;;;;4.37;1.50;;;13.70;95.60;;;;;;5452769;26;20230;-60
2024/04/20 12:30:05;;;;;;;1.77;1.10;;;14.00;95.40;;;;;;5453105;26;20621;-60
2024/04/20 12:32:34;;;;;;;3.10;1.20;;;14.10;94.20;;;;;;5452565;26;20234;-59
2024/04/20 12:35:02;;;;;;;1.90;1.20;;;14.20;94.30;;;;;;5452713;26;20358;-59
2024/04/20 12:37:33;;;;;;;3.07;1.37;;;14.20;94.10;;;;;;5423718;26;20714;-59
2024/04/20 12:40:02;;;;;;;4.70;1.50;;;13.90;93.70;;;;;;5452392;26;20313;-59
2024/04/20 12:42:31;;;;;;;3.87;1.23;;;13.80;94.00;;;;;;5424134;26;20340;-55
2024/04/20 12:45:03;;;;;;;2.57;1.23;;;13.90;92.70;;;;;;5453033;26;20271;-55
2024/04/20 12:47:31;;;;;;;2.53;1.20;;;13.90;92.90;;;;;;5424777;26;20556;-55
2024/04/20 12:49:59;;;;;;;1.47;1.20;;;13.90;93.40;;;;;;5452337;26;20765;-55
2024/04/20 12:52:28;;;;;;;2.77;1.27;;;13.80;93.10;;;;;;5451785;26;20272;-58
2024/04/20 12:54:58;;;;;;;3.70;1.30;;;13.50;93.50;;;;;;5452097;26;20234;-56
2024/04/20 12:57:27;;;;;;;2.87;1.20;;;13.30;94.40;;;;;;5452406;26;20750;-56
2024/04/20 12:59:55;;;;;;;3.27;1.53;;;13.60;94.80;;;;;;5451798;26;20233;-55
2024/04/20 13:02:24;;;;;;;1.40;1.10;;;14.00;95.10;;;;;;5451313;26;20238;-59
2024/04/20 13:04:52;;;;;;;4.20;1.37;;;14.40;94.60;;;;;;5452388;26;20266;-56